Willard, Kentucky
Current Conditions -  °F | °C
As of 4:51 AM on Sunday 21 Dec 2014 (Local Time) from KHTS Reporting Station
Overcast Overcast  
Wind Chill: 30°   Ceiling: 2000
Heat Index: 30°   Visibility: 9mi
Dew Point: 27°   Wind: 0mph
Humidity: 88%   Direction: NA
Pressure: 30.28"   Gusts: NA
Location:  38.21°N, 82.9°W
Report Text: KHTS 210951Z 00000KT 9SM OVC020 M01/M03 A3028 RMK AO2 SLP259 T10111028
Loading
Personal Weather Stations






























Interactive Weather Map New forecast layout! Learn more

10-Day Weather Forecast

Advertisements
Track Severe Weather on mobile